Portada
METAR-TAF:

METAR-TAF

Aeroports :

Cascais, Portugal

latitud: 38-43-32N, longitud: 009-21-19W, altitud: 99 m

Observació

L'informe es va fer fa 23 minuts, a les 09:30 UTC
Vent 9 kt del Est, variant entre Nord/Nord-Est i Est/Sud-Est
Temperatura 17°C
Humitat 52%
Pressió 1021 hPa
Visibilitat 10 km o més
sense núvols per sota de 1500 mi sense presència de cumulonimbus.

METAR: LPCS 240930Z 08009KT 020V110 CAVOK 17/07 Q1021

Hora: 09:53 (09:53 UTC)

Pronòstic

L'informe es va fer fa 1 hora i 53 minuts, a les 08:00 UTC
Pronòstic vàlid del 24 a les 09 UTC al 24 a les 18 UTC
Vent 8 kt del Est/Nord-Est
Visibilitat 10 km o més
sense núvols per sota de 1500 mi sense presència de cumulonimbus.

TAF: LPCS 240800Z 2409/2418 06008KT CAVOK

Observacions i pronòstics meteorològics de més de 4000 aeroports (METAR i TAF).

Les estacions disponibles són els punts grocs i vermells al mapa.

Posi el ratolí al punt desitjat per veure el nom de l'estació.

Feu clic per veure les observacions i els pronòstics meteorològics.

Per canviar el mapa: feu clic els botons verds amb una creu de color negre per apropar; al botó verd amb un guió per allunyar la imatge; o en les fletxes verdes per a mapes adjacents.


METAR-TAF: